createdAt,value
2019-03-28T00:00:57.234Z,12.73
2019-03-28T00:03:25.674Z,12.23
2019-03-28T00:05:54.125Z,10.80
2019-03-28T00:08:22.573Z,12.30
2019-03-28T00:10:51.106Z,13.07
2019-03-28T00:13:19.551Z,13.43
2019-03-28T00:15:49.398Z,13.10
2019-03-28T00:18:17.875Z,12.47
2019-03-28T00:20:46.358Z,13.10
2019-03-28T00:23:16.479Z,12.57
2019-03-28T00:25:44.921Z,15.07
2019-03-28T00:28:13.423Z,12.53
2019-03-28T00:30:42.324Z,12.63
2019-03-28T00:33:10.763Z,14.17
2019-03-28T00:35:39.210Z,12.23
2019-03-28T00:38:07.665Z,12.30
2019-03-28T00:40:36.102Z,14.00
2019-03-28T00:43:04.545Z,13.50
2019-03-28T00:45:33.171Z,11.83
2019-03-28T00:48:01.609Z,12.80
2019-03-28T00:50:32.916Z,12.63
2019-03-28T00:53:00.240Z,12.80
2019-03-28T00:55:28.672Z,12.27
2019-03-28T00:57:57.109Z,12.33
2019-03-28T01:00:25.872Z,12.87
2019-03-28T01:02:54.335Z,13.80
2019-03-28T01:05:22.761Z,13.83
2019-03-28T01:07:51.333Z,13.23
2019-03-28T01:10:19.761Z,13.33
2019-03-28T01:12:48.217Z,12.17
2019-03-28T01:15:16.741Z,13.70
2019-03-28T01:17:45.460Z,13.10
2019-03-28T01:20:14.306Z,13.97
2019-03-28T01:22:42.847Z,12.70
2019-03-28T01:25:11.921Z,14.00
2019-03-28T01:27:40.361Z,12.90
2019-03-28T01:30:09.553Z,13.70
2019-03-28T01:32:37.988Z,14.23
2019-03-28T01:35:06.653Z,14.50
2019-03-28T01:37:35.089Z,13.50
2019-03-28T01:40:04.337Z,14.00
2019-03-28T01:42:32.789Z,13.00
2019-03-28T01:45:01.223Z,12.90
2019-03-28T01:47:29.676Z,13.10
2019-03-28T01:49:58.312Z,12.87
2019-03-28T01:52:26.804Z,12.97
2019-03-28T01:54:55.313Z,14.63
2019-03-28T01:57:24.106Z,13.43
2019-03-28T01:59:52.549Z,12.07
2019-03-28T02:02:21.527Z,13.13
2019-03-28T02:04:49.961Z,12.50
2019-03-28T02:07:18.440Z,12.87
2019-03-28T02:09:46.914Z,12.50
2019-03-28T02:12:15.342Z,12.90
2019-03-28T02:14:43.791Z,12.87
2019-03-28T02:17:12.312Z,13.77
2019-03-28T02:19:41.055Z,13.80
2019-03-28T02:22:09.497Z,15.10
2019-03-28T02:24:37.963Z,13.80
2019-03-28T02:27:06.580Z,13.67
2019-03-28T02:29:35.049Z,13.40
2019-03-28T02:32:03.531Z,14.07
2019-03-28T02:34:31.960Z,14.40
2019-03-28T02:37:00.417Z,15.63
2019-03-28T02:39:28.836Z,13.70
2019-03-28T02:41:57.273Z,13.37
2019-03-28T02:44:25.704Z,15.77
2019-03-28T02:46:54.129Z,14.03
2019-03-28T02:49:22.644Z,16.03
2019-03-28T02:51:51.078Z,13.40
2019-03-28T02:54:19.523Z,14.83
2019-03-28T02:56:47.961Z,15.10
2019-03-28T02:59:16.414Z,15.50
2019-03-28T03:01:45.032Z,14.90
2019-03-28T03:04:13.560Z,15.47
2019-03-28T03:06:42.006Z,16.47
2019-03-28T03:09:10.433Z,16.17
2019-03-28T03:11:42.611Z,16.27
2019-03-28T03:14:09.050Z,17.37
2019-03-28T03:16:37.479Z,15.87
2019-03-28T03:19:05.916Z,17.40
2019-03-28T03:21:35.913Z,18.10
2019-03-28T03:24:04.956Z,17.63
2019-03-28T03:26:33.819Z,14.73
2019-03-28T03:29:02.242Z,16.40
2019-03-28T03:31:30.683Z,14.87
2019-03-28T03:33:59.114Z,15.60
2019-03-28T03:36:29.875Z,14.37
2019-03-28T03:38:58.336Z,15.73
2019-03-28T03:41:26.793Z,15.90
2019-03-28T03:43:55.221Z,14.87
2019-03-28T03:46:24.908Z,16.10
2019-03-28T03:48:54.798Z,16.03
2019-03-28T03:51:23.259Z,16.33
2019-03-28T03:53:51.674Z,16.63
2019-03-28T03:56:20.121Z,14.97
2019-03-28T03:58:48.558Z,16.47
2019-03-28T04:01:17.020Z,17.30
2019-03-28T04:03:45.515Z,16.10
2019-03-28T04:06:14.058Z,16.07
2019-03-28T04:08:42.491Z,18.57
2019-03-28T04:11:10.930Z,17.30
2019-03-28T04:13:39.517Z,18.63
2019-03-28T04:16:07.979Z,17.17
2019-03-28T04:18:36.416Z,19.63
2019-03-28T04:21:04.929Z,19.20
2019-03-28T04:23:33.378Z,19.50
2019-03-28T04:26:01.894Z,17.77
2019-03-28T04:28:32.800Z,20.20
2019-03-28T04:31:01.322Z,20.10
2019-03-28T04:33:29.898Z,18.80
2019-03-28T04:35:58.337Z,19.73
2019-03-28T04:38:26.781Z,22.20
2019-03-28T04:40:55.231Z,19.50
2019-03-28T04:43:23.658Z,21.00
2019-03-28T04:45:52.076Z,19.97
2019-03-28T04:48:20.510Z,20.70
2019-03-28T04:50:49.116Z,20.53
2019-03-28T04:53:17.557Z,23.27
2019-03-28T04:55:45.992Z,20.37
2019-03-28T04:58:14.608Z,20.13
2019-03-28T05:00:43.049Z,20.77
2019-03-28T05:03:11.505Z,21.67
2019-03-28T05:05:39.938Z,22.90
2019-03-28T05:08:08.427Z,22.40
2019-03-28T05:10:37.400Z,23.03
2019-03-28T05:13:05.836Z,22.87
2019-03-28T05:15:34.271Z,24.90
2019-03-28T05:18:02.696Z,23.20
2019-03-28T05:20:31.134Z,24.40
2019-03-28T05:22:59.603Z,24.07
2019-03-28T05:25:28.093Z,22.30
2019-03-28T05:27:59.330Z,23.27
2019-03-28T05:30:27.996Z,21.60
2019-03-28T05:32:56.456Z,22.77
2019-03-28T05:35:24.883Z,24.13
2019-03-28T05:37:53.324Z,22.50
2019-03-28T05:40:22.954Z,22.50
2019-03-28T05:42:51.670Z,22.10
2019-03-28T05:45:20.176Z,22.87
2019-03-28T05:47:48.638Z,25.10
2019-03-28T05:50:17.074Z,24.70
2019-03-28T05:52:45.841Z,25.33
2019-03-28T05:55:14.289Z,23.90
2019-03-28T05:57:42.715Z,25.30
2019-03-28T06:00:11.693Z,23.53
2019-03-28T06:02:40.361Z,23.00
2019-03-28T06:05:08.805Z,23.10
2019-03-28T06:07:38.753Z,23.50
2019-03-28T06:10:09.110Z,24.40
2019-03-28T06:12:37.755Z,22.57
2019-03-28T06:15:08.312Z,25.23
2019-03-28T06:17:36.831Z,21.87
2019-03-28T06:20:08.466Z,22.00
2019-03-28T06:22:36.905Z,23.63
2019-03-28T06:25:06.091Z,22.27
2019-03-28T06:27:34.817Z,21.00
2019-03-28T06:30:04.125Z,22.50
2019-03-28T06:32:42.265Z,20.00
2019-03-28T06:35:02.708Z,21.37
2019-03-28T06:37:31.169Z,21.33
2019-03-28T06:40:00.495Z,19.87
2019-03-28T06:42:28.999Z,17.00
2019-03-28T06:44:57.464Z,16.37
2019-03-28T06:47:25.890Z,20.10
2019-03-28T06:49:54.328Z,20.53
2019-03-28T06:52:22.758Z,20.90
2019-03-28T06:54:51.251Z,21.30
2019-03-28T06:57:19.764Z,19.13
2019-03-28T06:59:48.277Z,18.70
2019-03-28T07:02:17.335Z,19.17
2019-03-28T07:04:46.008Z,20.97
2019-03-28T07:07:14.430Z,17.53
2019-03-28T07:09:42.896Z,23.07
2019-03-28T07:12:11.317Z,19.97
2019-03-28T07:14:39.745Z,18.37
2019-03-28T07:17:08.206Z,21.97
2019-03-28T07:19:36.627Z,21.63
2019-03-28T07:22:05.061Z,23.27
2019-03-28T07:24:33.480Z,22.73
2019-03-28T07:27:01.939Z,22.00
2019-03-28T07:29:30.371Z,20.47
2019-03-28T07:31:58.877Z,20.70
2019-03-28T07:34:27.313Z,21.97
2019-03-28T07:36:55.765Z,21.10
2019-03-28T07:39:24.187Z,18.60
2019-03-28T07:41:52.624Z,18.00
2019-03-28T07:44:21.120Z,18.50
2019-03-28T07:46:49.599Z,20.40
2019-03-28T07:49:18.110Z,19.43
2019-03-28T07:51:46.737Z,18.47
2019-03-28T07:54:15.169Z,21.17
2019-03-28T07:56:43.609Z,20.40
2019-03-28T07:59:12.043Z,18.37
2019-03-28T08:01:40.481Z,19.00
2019-03-28T08:04:12.112Z,18.40
2019-03-28T08:06:49.046Z,17.77
2019-03-28T08:09:10.306Z,16.63
2019-03-28T08:11:39.002Z,17.00
2019-03-28T08:14:07.631Z,17.30
2019-03-28T08:16:36.069Z,19.40
2019-03-28T08:19:07.806Z,20.50
2019-03-28T08:21:34.839Z,19.43
2019-03-28T08:24:03.306Z,18.13
2019-03-28T08:26:31.729Z,17.67
2019-03-28T08:29:00.178Z,18.40
2019-03-28T08:31:28.602Z,18.63
2019-03-28T08:33:57.042Z,17.80
2019-03-28T08:36:26.705Z,17.13
2019-03-28T08:38:55.820Z,19.23
2019-03-28T08:41:24.305Z,20.23
2019-03-28T08:43:52.763Z,19.63
2019-03-28T08:46:21.193Z,19.10
2019-03-28T08:48:49.639Z,21.33
2019-03-28T08:51:18.136Z,19.40
2019-03-28T08:53:46.581Z,19.80
2019-03-28T08:56:15.006Z,17.97
2019-03-28T08:58:43.461Z,20.20
2019-03-28T09:01:11.896Z,19.80
2019-03-28T09:03:40.349Z,20.50
2019-03-28T09:06:08.780Z,19.40
2019-03-28T09:08:37.243Z,19.33
2019-03-28T09:11:05.669Z,20.10
2019-03-28T09:13:35.648Z,18.20
2019-03-28T09:16:04.166Z,19.30
2019-03-28T09:18:32.920Z,17.30
2019-03-28T09:21:01.421Z,19.20
2019-03-28T09:23:29.864Z,17.60
2019-03-28T09:25:58.287Z,18.67
2019-03-28T09:28:26.733Z,18.17
2019-03-28T09:30:55.346Z,17.60
2019-03-28T09:33:24.168Z,17.27
2019-03-28T09:35:52.740Z,16.40
2019-03-28T09:38:21.417Z,16.17
2019-03-28T09:40:49.862Z,15.47
2019-03-28T09:43:18.376Z,13.37
2019-03-28T09:45:46.841Z,13.10
2019-03-28T09:48:15.293Z,14.40
2019-03-28T09:50:43.781Z,14.37
2019-03-28T09:53:13.925Z,14.67
2019-03-28T09:55:42.352Z,13.80
2019-03-28T09:58:10.964Z,13.60
2019-03-28T10:00:39.389Z,13.33
2019-03-28T10:03:07.963Z,13.00
2019-03-28T10:05:38.047Z,14.10
2019-03-28T10:08:06.558Z,13.40
2019-03-28T10:10:35.030Z,14.63
2019-03-28T10:13:03.628Z,15.87
2019-03-28T10:15:36.803Z,13.93
2019-03-28T10:18:04.468Z,13.10
2019-03-28T10:20:32.898Z,15.30
2019-03-28T10:23:01.340Z,15.37
2019-03-28T10:25:29.774Z,14.50
2019-03-28T10:27:58.991Z,13.47
2019-03-28T10:30:44.393Z,15.17
2019-03-28T10:33:12.845Z,16.30
2019-03-28T10:35:41.296Z,13.07
2019-03-28T10:38:09.970Z,14.57
2019-03-28T10:40:38.511Z,14.43
2019-03-28T10:43:07.208Z,12.67
2019-03-28T10:45:35.656Z,11.50
2019-03-28T10:48:04.821Z,10.23
2019-03-28T10:50:40.819Z,10.83
2019-03-28T10:53:03.570Z,11.53
2019-03-28T10:55:32.025Z,10.40
2019-03-28T10:58:00.454Z,9.20
2019-03-28T11:00:28.900Z,9.33
2019-03-28T11:02:57.624Z,7.90
2019-03-28T11:05:26.119Z,7.73
2019-03-28T11:07:54.563Z,8.67
2019-03-28T11:10:22.994Z,7.20
2019-03-28T11:12:51.431Z,7.13
2019-03-28T11:15:19.873Z,8.50
2019-03-28T11:17:48.383Z,7.57
2019-03-28T11:20:16.902Z,8.17
2019-03-28T11:22:45.510Z,8.00
2019-03-28T11:25:14.613Z,7.57
2019-03-28T11:27:43.053Z,7.83
2019-03-28T11:30:12.839Z,8.17
2019-03-28T11:32:41.262Z,7.00
2019-03-28T11:35:09.978Z,7.83
2019-03-28T11:37:38.489Z,7.80
2019-03-28T11:40:09.247Z,8.00
2019-03-28T11:42:38.064Z,7.33
2019-03-28T11:45:09.341Z,7.40
2019-03-28T11:47:37.656Z,8.47
2019-03-28T11:50:10.300Z,7.73
2019-03-28T11:52:38.728Z,7.70
2019-03-28T11:55:07.709Z,8.30
2019-03-28T11:57:37.297Z,7.47
2019-03-28T12:00:12.033Z,7.87
2019-03-28T12:02:40.476Z,7.80
2019-03-28T12:05:09.820Z,9.23
2019-03-28T12:07:38.253Z,9.10
2019-03-28T12:10:09.770Z,8.93
2019-03-28T12:12:38.212Z,8.00
2019-03-28T12:15:08.965Z,8.97
2019-03-28T12:17:37.401Z,6.93
2019-03-28T12:20:07.801Z,8.70
2019-03-28T12:22:36.416Z,8.20
2019-03-28T12:25:06.674Z,9.50
2019-03-28T12:27:35.098Z,8.83
2019-03-28T12:30:05.577Z,9.27
2019-03-28T12:32:34.098Z,9.23
2019-03-28T12:35:02.539Z,9.53
2019-03-28T12:37:30.986Z,10.17
2019-03-28T12:40:00.059Z,9.37
2019-03-28T12:42:28.957Z,8.77
2019-03-28T12:44:58.299Z,9.60
2019-03-28T12:47:41.299Z,9.30
2019-03-28T12:49:57.670Z,8.97
2019-03-28T12:52:26.112Z,10.10
2019-03-28T12:54:54.747Z,9.17
2019-03-28T12:57:23.551Z,9.30
2019-03-28T12:59:53.604Z,8.70
2019-03-28T13:02:30.033Z,9.83
2019-03-28T13:04:52.360Z,9.37
2019-03-28T13:07:21.005Z,9.97
2019-03-28T13:09:49.766Z,7.77
2019-03-28T13:12:18.257Z,9.23
2019-03-28T13:14:47.726Z,8.93
2019-03-28T13:17:16.567Z,7.70
2019-03-28T13:19:45.117Z,8.17
2019-03-28T13:22:13.569Z,8.23
2019-03-28T13:24:41.984Z,9.00
2019-03-28T13:27:10.421Z,8.20
2019-03-28T13:29:38.852Z,8.10
2019-03-28T13:32:07.478Z,8.27
2019-03-28T13:34:35.942Z,9.20
2019-03-28T13:37:04.383Z,8.17
2019-03-28T13:39:33.769Z,7.37
2019-03-28T13:42:02.254Z,7.23
2019-03-28T13:44:30.682Z,8.00
2019-03-28T13:46:59.127Z,6.63
2019-03-28T13:49:27.550Z,7.20
2019-03-28T13:51:55.984Z,7.40
2019-03-28T13:54:24.421Z,8.47
2019-03-28T13:56:52.872Z,7.40
2019-03-28T13:59:21.296Z,8.70
2019-03-28T14:01:49.732Z,7.10
2019-03-28T14:04:18.172Z,8.50
2019-03-28T14:06:46.610Z,7.73
2019-03-28T14:09:15.056Z,7.83
2019-03-28T14:11:43.502Z,8.53
2019-03-28T14:14:11.969Z,7.50
2019-03-28T14:16:40.458Z,8.23
2019-03-28T14:19:08.925Z,7.20
2019-03-28T14:21:37.352Z,10.97
2019-03-28T14:24:05.861Z,9.40
2019-03-28T14:26:37.420Z,7.03
2019-03-28T14:29:06.899Z,8.50
2019-03-28T14:31:34.644Z,8.00
2019-03-28T14:34:03.130Z,7.80
2019-03-28T14:36:32.852Z,9.03
2019-03-28T14:39:01.511Z,9.67
2019-03-28T14:41:29.947Z,10.27
2019-03-28T14:43:58.386Z,11.37
2019-03-28T14:46:26.820Z,10.67
2019-03-28T14:48:55.282Z,10.13
2019-03-28T14:51:23.765Z,9.83
2019-03-28T14:53:52.201Z,9.83
2019-03-28T14:56:21.070Z,10.17
2019-03-28T14:58:50.662Z,9.20
2019-03-28T15:01:20.632Z,9.13
2019-03-28T15:03:49.071Z,10.30
2019-03-28T15:06:17.506Z,10.10
2019-03-28T15:08:46.024Z,8.90
2019-03-28T15:11:15.835Z,8.17
2019-03-28T15:13:44.261Z,7.73
2019-03-28T15:16:12.692Z,8.80
2019-03-28T15:18:41.133Z,6.43
2019-03-28T15:21:09.565Z,7.97
2019-03-28T15:23:38.031Z,7.20
2019-03-28T15:26:06.493Z,8.10
2019-03-28T15:28:34.949Z,7.77
2019-03-28T15:31:03.417Z,8.17
2019-03-28T15:33:39.213Z,7.40
2019-03-28T15:36:02.265Z,7.13
2019-03-28T15:38:31.495Z,7.03
2019-03-28T15:41:00.105Z,6.07
2019-03-28T15:43:28.546Z,7.57
2019-03-28T15:45:56.995Z,7.07
2019-03-28T15:48:25.438Z,6.63
2019-03-28T15:50:53.933Z,6.20
2019-03-28T15:53:22.440Z,6.87
2019-03-28T15:55:50.875Z,7.50
2019-03-28T15:58:23.459Z,8.70
2019-03-28T16:00:49.487Z,7.60
2019-03-28T16:03:17.988Z,6.47
2019-03-28T16:05:57.686Z,7.00
2019-03-28T16:08:16.707Z,7.47
2019-03-28T16:10:45.151Z,7.17
2019-03-28T16:13:13.609Z,6.90
2019-03-28T16:15:42.070Z,6.73
2019-03-28T16:18:10.496Z,6.00
2019-03-28T16:20:39.066Z,5.60
2019-03-28T16:23:07.504Z,6.80
2019-03-28T16:25:35.997Z,7.00
2019-03-28T16:28:04.432Z,6.13
2019-03-28T16:30:38.160Z,5.57
2019-03-28T16:33:07.132Z,5.67
2019-03-28T16:35:35.577Z,5.90
2019-03-28T16:38:04.286Z,6.83
2019-03-28T16:40:32.745Z,6.50
2019-03-28T16:43:01.178Z,6.30
2019-03-28T16:45:29.615Z,6.07
2019-03-28T16:47:58.412Z,5.27
2019-03-28T16:50:27.118Z,5.40
2019-03-28T16:52:55.632Z,5.33
2019-03-28T16:55:26.452Z,5.47
2019-03-28T16:57:54.214Z,7.10
2019-03-28T17:00:25.764Z,6.97
2019-03-28T17:02:54.192Z,5.30
2019-03-28T17:05:22.631Z,4.80
2019-03-28T17:07:51.703Z,4.90
2019-03-28T17:10:35.725Z,5.03
2019-03-28T17:13:04.214Z,5.63
2019-03-28T17:15:32.645Z,5.47
2019-03-28T17:18:01.248Z,5.37
2019-03-28T17:20:29.747Z,6.57
2019-03-28T17:22:58.247Z,5.57
2019-03-28T17:25:27.550Z,5.30
2019-03-28T17:27:55.989Z,6.27
2019-03-28T17:30:24.420Z,4.90
2019-03-28T17:32:52.856Z,4.57
2019-03-28T17:35:21.284Z,4.33
2019-03-28T17:37:49.732Z,4.73
2019-03-28T17:40:18.231Z,4.53
2019-03-28T17:42:47.999Z,4.30
2019-03-28T17:45:16.854Z,5.20
2019-03-28T17:47:45.381Z,4.70
2019-03-28T17:50:15.440Z,5.30
2019-03-28T17:52:43.889Z,4.13
2019-03-28T17:55:12.761Z,5.03
2019-03-28T17:57:42.947Z,5.07
2019-03-28T18:00:12.980Z,4.80
2019-03-28T18:02:41.611Z,4.57
2019-03-28T18:05:12.874Z,5.23
2019-03-28T18:07:40.773Z,4.53
2019-03-28T18:10:09.938Z,4.90
2019-03-28T18:12:39.041Z,4.67
2019-03-28T18:15:08.464Z,4.73
2019-03-28T18:17:36.914Z,4.80
2019-03-28T18:20:07.349Z,4.37
2019-03-28T18:22:35.858Z,5.10
2019-03-28T18:25:07.795Z,4.60
2019-03-28T18:27:37.286Z,5.30
2019-03-28T18:30:07.223Z,4.57
2019-03-28T18:32:39.003Z,5.50
2019-03-28T18:35:08.271Z,3.97
2019-03-28T18:37:36.984Z,4.67
2019-03-28T18:40:08.543Z,4.75
2019-03-28T18:42:37.147Z,4.43
2019-03-28T18:45:08.906Z,4.23
2019-03-28T18:47:37.329Z,4.30
2019-03-28T18:50:08.114Z,4.90
2019-03-28T18:52:37.902Z,5.15
2019-03-28T18:55:07.389Z,4.47
2019-03-28T18:57:35.830Z,4.70
2019-03-28T19:00:07.186Z,4.57
2019-03-28T19:02:37.631Z,4.50
2019-03-28T19:05:19.076Z,4.83
2019-03-28T19:07:38.147Z,4.50
2019-03-28T19:10:07.844Z,5.10
2019-03-28T19:12:36.323Z,3.70
2019-03-28T19:15:07.039Z,5.00
2019-03-28T19:17:35.950Z,5.33
2019-03-28T19:20:09.853Z,4.73
2019-03-28T19:22:38.612Z,5.50
2019-03-28T19:25:08.903Z,6.30
2019-03-28T19:27:38.096Z,6.07
2019-03-28T19:30:07.998Z,5.37
2019-03-28T19:32:36.508Z,6.10
2019-03-28T19:35:07.536Z,5.80
2019-03-28T19:37:39.945Z,5.70
2019-03-28T19:40:10.290Z,4.83
2019-03-28T19:42:40.641Z,5.53
2019-03-28T19:45:10.222Z,5.90
2019-03-28T19:47:38.657Z,6.50
2019-03-28T19:50:08.265Z,6.07
2019-03-28T19:52:38.278Z,4.87
2019-03-28T19:55:07.513Z,6.37
2019-03-28T19:57:36.182Z,6.10
2019-03-28T20:00:06.777Z,6.13
2019-03-28T20:02:36.081Z,6.37
2019-03-28T20:05:07.161Z,6.77
2019-03-28T20:07:35.585Z,7.57
2019-03-28T20:10:15.738Z,6.93
2019-03-28T20:12:36.196Z,6.93
2019-03-28T20:15:08.080Z,7.67
2019-03-28T20:17:37.005Z,7.20
2019-03-28T20:20:06.577Z,7.67
2019-03-28T20:22:35.030Z,8.40
2019-03-28T20:25:04.893Z,7.80
2019-03-28T20:27:33.631Z,9.63
2019-03-28T20:30:02.183Z,8.20
2019-03-28T20:32:30.673Z,9.77
2019-03-28T20:34:59.123Z,8.07
2019-03-28T20:37:27.607Z,8.27
2019-03-28T20:39:56.087Z,6.83
2019-03-28T20:42:24.574Z,7.47
2019-03-28T20:44:53.034Z,8.80
2019-03-28T20:47:21.501Z,9.60
2019-03-28T20:49:49.932Z,8.10
2019-03-28T20:52:19.155Z,9.27
2019-03-28T20:54:48.032Z,9.13
2019-03-28T20:57:17.908Z,9.33
2019-03-28T20:59:47.029Z,8.50
2019-03-28T21:02:16.514Z,9.23
2019-03-28T21:04:44.958Z,9.90
2019-03-28T21:07:15.354Z,8.37
2019-03-28T21:09:43.782Z,8.60
2019-03-28T21:12:12.225Z,8.20
2019-03-28T21:14:40.716Z,9.13
2019-03-28T21:17:09.174Z,9.07
2019-03-28T21:19:37.588Z,8.73
2019-03-28T21:22:07.323Z,9.43
2019-03-28T21:24:37.010Z,12.07
2019-03-28T21:27:05.462Z,8.53
2019-03-28T21:29:34.136Z,8.03
2019-03-28T21:32:02.828Z,8.47
2019-03-28T21:34:31.328Z,7.83
2019-03-28T21:36:59.753Z,8.20
2019-03-28T21:39:28.194Z,8.87
2019-03-28T21:41:57.518Z,8.37
2019-03-28T21:44:25.964Z,7.43
2019-03-28T21:46:54.878Z,7.93
2019-03-28T21:49:23.742Z,6.87
2019-03-28T21:51:52.835Z,9.13
2019-03-28T21:54:21.281Z,7.77
2019-03-28T21:56:50.066Z,7.33
2019-03-28T21:59:18.932Z,7.00
2019-03-28T22:01:47.363Z,7.93
2019-03-28T22:04:15.808Z,8.00
2019-03-28T22:06:44.249Z,6.73
2019-03-28T22:09:12.684Z,7.53
2019-03-28T22:11:41.113Z,7.90
2019-03-28T22:14:09.557Z,7.47
2019-03-28T22:16:38.098Z,8.20
2019-03-28T22:19:06.607Z,7.53
2019-03-28T22:21:36.684Z,8.10
2019-03-28T22:24:06.232Z,7.43
2019-03-28T22:26:34.755Z,7.87
2019-03-28T22:29:03.341Z,8.00
2019-03-28T22:31:31.773Z,7.90
2019-03-28T22:34:00.364Z,7.93
2019-03-28T22:36:28.807Z,9.00
2019-03-28T22:38:57.248Z,8.10
2019-03-28T22:41:25.800Z,8.87
2019-03-28T22:43:54.245Z,8.67
2019-03-28T22:46:22.668Z,7.10
2019-03-28T22:48:52.333Z,7.80
2019-03-28T22:51:20.784Z,7.60
2019-03-28T22:53:50.521Z,9.10
2019-03-28T22:56:18.944Z,8.57
2019-03-28T22:58:47.393Z,8.40
2019-03-28T23:01:16.365Z,8.00
2019-03-28T23:03:44.800Z,9.40
2019-03-28T23:06:13.501Z,8.90
2019-03-28T23:08:41.933Z,10.30
2019-03-28T23:11:10.378Z,7.80
2019-03-28T23:13:38.805Z,9.27
2019-03-28T23:16:07.252Z,8.20
2019-03-28T23:18:35.680Z,8.67
2019-03-28T23:21:04.356Z,10.07
2019-03-28T23:23:32.818Z,9.97
2019-03-28T23:26:01.262Z,7.70
2019-03-28T23:28:29.765Z,8.87
2019-03-28T23:31:00.513Z,8.97
2019-03-28T23:33:28.936Z,7.90
2019-03-28T23:35:57.371Z,8.20
2019-03-28T23:38:25.798Z,7.87
2019-03-28T23:40:54.274Z,8.87
2019-03-28T23:43:22.729Z,8.50
2019-03-28T23:45:51.267Z,8.97
2019-03-28T23:48:19.700Z,8.73
2019-03-28T23:50:48.137Z,9.00
2019-03-28T23:53:16.590Z,8.23
2019-03-28T23:55:45.155Z,9.07
2019-03-28T23:58:13.655Z,7.00
